createdAt,value
2022-09-03T00:00:14.657Z,21.07
2022-09-03T00:03:10.898Z,21.07
2022-09-03T00:05:47.713Z,21.07
2022-09-03T00:08:32.963Z,21.05
2022-09-03T00:11:26.156Z,21.04
2022-09-03T00:14:20.729Z,21.00
2022-09-03T00:16:57.547Z,20.97
2022-09-03T00:19:33.616Z,20.95
2022-09-03T00:22:10.977Z,20.89
2022-09-03T00:24:42.468Z,20.85
2022-09-03T00:27:18.638Z,20.81
2022-09-03T00:30:05.926Z,20.75
2022-09-03T00:33:07.030Z,20.69
2022-09-03T00:35:48.134Z,20.65
2022-09-03T00:38:15.405Z,20.59
2022-09-03T00:40:56.582Z,20.56
2022-09-03T00:43:54.191Z,20.52
2022-09-03T00:46:32.230Z,20.46
2022-09-03T00:49:56.049Z,20.40
2022-09-03T00:52:47.960Z,20.32
2022-09-03T00:55:34.257Z,20.27
2022-09-03T00:58:30.755Z,20.22
2022-09-03T01:00:57.588Z,20.18
2022-09-03T01:03:42.200Z,20.16
2022-09-03T01:06:44.317Z,20.12
2022-09-03T01:09:48.224Z,20.06
2022-09-03T01:12:52.114Z,20.02
2022-09-03T01:16:00.529Z,19.96
2022-09-03T01:18:34.100Z,19.92
2022-09-03T01:22:20.173Z,19.89
2022-09-03T01:25:02.425Z,19.84
2022-09-03T01:28:08.518Z,19.83
2022-09-03T01:30:49.323Z,19.80
2022-09-03T01:33:53.305Z,19.81
2022-09-03T01:37:09.769Z,19.77
2022-09-03T01:39:59.119Z,19.74
2022-09-03T01:42:54.399Z,19.72
2022-09-03T01:45:51.614Z,19.73
2022-09-03T01:48:58.622Z,19.70
2022-09-03T01:51:30.124Z,19.67
2022-09-03T01:54:05.908Z,19.70
2022-09-03T01:57:22.386Z,19.66
2022-09-03T02:00:05.481Z,19.65
2022-09-03T02:02:32.738Z,19.66
2022-09-03T02:05:17.009Z,19.68
2022-09-03T02:07:52.068Z,19.67
2022-09-03T02:10:33.206Z,19.66
2022-09-03T02:13:10.161Z,19.66
2022-09-03T02:15:42.029Z,19.66
2022-09-03T02:18:20.232Z,19.65
2022-09-03T02:20:49.112Z,19.63
2022-09-03T02:23:16.768Z,19.64
2022-09-03T02:25:52.928Z,19.62
2022-09-03T02:28:20.290Z,19.61
2022-09-03T02:30:48.320Z,19.61
2022-09-03T02:33:16.939Z,19.62
2022-09-03T02:35:45.561Z,19.61
2022-09-03T02:38:18.841Z,19.60
2022-09-03T02:40:46.541Z,19.59
2022-09-03T02:43:32.859Z,19.60
2022-09-03T02:46:08.906Z,19.58
2022-09-03T02:48:36.083Z,19.59
2022-09-03T02:51:02.935Z,19.61
2022-09-03T02:53:41.242Z,19.61
2022-09-03T02:56:08.205Z,19.61
2022-09-03T02:58:35.109Z,19.60
2022-09-03T03:01:02.062Z,19.63
2022-09-03T03:03:29.198Z,19.65
2022-09-03T03:06:01.887Z,19.68
2022-09-03T03:08:30.288Z,19.68
2022-09-03T03:11:00.675Z,19.70
2022-09-03T03:13:29.540Z,19.71
2022-09-03T03:16:02.946Z,19.73
2022-09-03T03:18:30.020Z,19.73
2022-09-03T03:20:56.829Z,19.75
2022-09-03T03:23:23.938Z,19.72
2022-09-03T03:25:50.773Z,19.73
2022-09-03T03:28:19.864Z,19.72
2022-09-03T03:30:49.025Z,19.70
2022-09-03T03:33:16.790Z,19.68
2022-09-03T03:35:43.696Z,19.65
2022-09-03T03:38:10.906Z,19.65
2022-09-03T03:40:40.515Z,19.61
2022-09-03T03:43:07.245Z,19.58
2022-09-03T03:45:35.641Z,19.57
2022-09-03T03:48:03.420Z,19.56
2022-09-03T03:50:31.095Z,19.54
2022-09-03T03:53:10.272Z,19.55
2022-09-03T03:55:37.041Z,19.52
2022-09-03T03:58:03.828Z,19.52
2022-09-03T04:00:31.066Z,19.51
2022-09-03T04:02:59.404Z,19.49
2022-09-03T04:05:26.168Z,19.48
2022-09-03T04:07:53.692Z,19.47
2022-09-03T04:10:20.465Z,19.46
2022-09-03T04:12:47.248Z,19.44
2022-09-03T04:15:14.076Z,19.44
2022-09-03T04:17:40.915Z,19.43
2022-09-03T04:20:08.052Z,19.42
2022-09-03T04:22:34.826Z,19.40
2022-09-03T04:25:01.626Z,19.39
2022-09-03T04:27:28.408Z,19.37
2022-09-03T04:29:55.743Z,19.33
2022-09-03T04:32:41.717Z,19.32
2022-09-03T04:35:09.580Z,19.27
2022-09-03T04:37:37.235Z,19.24
2022-09-03T04:40:06.995Z,19.23
2022-09-03T04:42:33.958Z,19.20
2022-09-03T04:45:18.803Z,19.20
2022-09-03T04:48:02.878Z,19.16
2022-09-03T04:50:32.840Z,19.14
2022-09-03T04:53:08.108Z,19.12
2022-09-03T04:55:38.196Z,19.10
2022-09-03T04:58:08.032Z,19.08
2022-09-03T05:00:46.949Z,19.02
2022-09-03T05:03:14.262Z,18.99
2022-09-03T05:05:41.783Z,18.97
2022-09-03T05:08:09.890Z,18.95
2022-09-03T05:10:40.343Z,18.94
2022-09-03T05:13:08.100Z,18.92
2022-09-03T05:15:35.447Z,18.92
2022-09-03T05:18:04.042Z,18.93
2022-09-03T05:20:32.993Z,18.92
2022-09-03T05:23:04.486Z,18.94
2022-09-03T05:25:32.739Z,18.94
2022-09-03T05:28:01.863Z,18.97
2022-09-03T05:30:29.320Z,19.01
2022-09-03T05:33:01.150Z,19.08
2022-09-03T05:35:30.341Z,19.15
2022-09-03T05:37:58.479Z,19.24
2022-09-03T05:40:26.378Z,19.33
2022-09-03T05:42:58.609Z,19.43
2022-09-03T05:45:25.514Z,19.51
2022-09-03T05:47:52.377Z,19.59
2022-09-03T05:50:19.346Z,19.68
2022-09-03T05:52:46.270Z,19.76
2022-09-03T05:55:13.599Z,19.84
2022-09-03T05:57:42.277Z,19.93
2022-09-03T06:00:12.519Z,20.02
2022-09-03T06:02:39.494Z,20.11
2022-09-03T06:05:08.056Z,20.20
2022-09-03T06:07:34.935Z,20.31
2022-09-03T06:10:01.772Z,20.43
2022-09-03T06:12:28.556Z,20.51
2022-09-03T06:14:55.546Z,20.60
2022-09-03T06:17:23.115Z,20.68
2022-09-03T06:19:49.931Z,20.72
2022-09-03T06:22:18.296Z,20.75
2022-09-03T06:24:45.124Z,20.76
2022-09-03T06:27:11.885Z,20.77
2022-09-03T06:29:39.862Z,20.76
2022-09-03T06:32:06.964Z,20.76
2022-09-03T06:34:33.880Z,20.73
2022-09-03T06:37:00.734Z,20.70
2022-09-03T06:39:27.570Z,20.67
2022-09-03T06:41:55.045Z,20.67
2022-09-03T06:44:21.901Z,20.65
2022-09-03T06:46:48.758Z,20.66
2022-09-03T06:49:15.846Z,20.67
2022-09-03T06:51:44.151Z,20.69
2022-09-03T06:54:13.095Z,20.74
2022-09-03T06:56:41.515Z,20.81
2022-09-03T06:59:14.624Z,20.84
2022-09-03T07:01:45.351Z,20.95
2022-09-03T07:04:20.122Z,21.04
2022-09-03T07:06:48.166Z,21.13
2022-09-03T07:09:18.059Z,21.24
2022-09-03T07:11:49.216Z,21.40
2022-09-03T07:14:19.355Z,21.52
2022-09-03T07:16:48.735Z,21.66
2022-09-03T07:19:17.095Z,21.81
2022-09-03T07:21:49.697Z,22.11
2022-09-03T07:24:18.602Z,22.74
2022-09-03T07:26:47.059Z,23.64
2022-09-03T07:29:15.802Z,24.63
2022-09-03T07:31:44.176Z,25.61
2022-09-03T07:34:13.634Z,26.31
2022-09-03T07:36:43.964Z,26.71
2022-09-03T07:39:13.965Z,27.05
2022-09-03T07:41:46.134Z,27.55
2022-09-03T07:44:16.204Z,28.08
2022-09-03T07:46:45.474Z,28.48
2022-09-03T07:49:12.940Z,28.92
2022-09-03T07:51:40.445Z,29.29
2022-09-03T07:54:11.927Z,29.39
2022-09-03T07:56:41.019Z,29.35
2022-09-03T07:59:09.257Z,29.37
2022-09-03T08:01:41.685Z,29.38
2022-09-03T08:04:09.627Z,29.46
2022-09-03T08:06:49.842Z,29.80
2022-09-03T08:09:16.971Z,30.24
2022-09-03T08:11:44.233Z,30.57
2022-09-03T08:14:13.989Z,30.63
2022-09-03T08:16:47.860Z,30.56
2022-09-03T08:19:17.045Z,30.36
2022-09-03T08:21:44.758Z,30.07
2022-09-03T08:24:14.512Z,29.76
2022-09-03T08:26:46.510Z,29.45
2022-09-03T08:29:15.088Z,29.14
2022-09-03T08:31:43.157Z,28.88
2022-09-03T08:34:11.875Z,28.62
2022-09-03T08:36:41.387Z,28.34
2022-09-03T08:39:11.839Z,28.11
2022-09-03T08:42:07.913Z,27.82
2022-09-03T08:44:47.144Z,27.58
2022-09-03T08:47:41.745Z,27.40
2022-09-03T08:50:37.531Z,27.15
2022-09-03T08:53:22.510Z,26.96
2022-09-03T08:56:27.751Z,26.76
2022-09-03T08:58:55.976Z,26.65
2022-09-03T09:02:17.644Z,26.55
2022-09-03T09:04:56.838Z,26.58
2022-09-03T09:08:03.345Z,26.57
2022-09-03T09:10:47.821Z,26.62
2022-09-03T09:13:53.150Z,26.64
2022-09-03T09:17:00.135Z,26.67
2022-09-03T09:20:00.054Z,26.72
2022-09-03T09:22:47.619Z,26.80
2022-09-03T09:25:22.417Z,26.95
2022-09-03T09:28:22.638Z,27.16
2022-09-03T09:30:55.355Z,27.40
2022-09-03T09:33:23.532Z,27.55
2022-09-03T09:35:51.008Z,27.72
2022-09-03T09:38:35.433Z,27.82
2022-09-03T09:41:19.642Z,27.92
2022-09-03T09:43:48.179Z,28.09
2022-09-03T09:46:25.711Z,28.30
2022-09-03T09:48:58.810Z,28.55
2022-09-03T09:51:31.557Z,28.77
2022-09-03T09:54:27.780Z,28.96
2022-09-03T09:57:08.579Z,29.16
2022-09-03T09:59:38.169Z,29.38
2022-09-03T10:02:21.851Z,29.68
2022-09-03T10:04:53.141Z,30.11
2022-09-03T10:07:32.951Z,30.66
2022-09-03T10:10:14.994Z,31.37
2022-09-03T10:12:59.468Z,32.00
2022-09-03T10:15:41.473Z,32.56
2022-09-03T10:18:46.097Z,32.98
2022-09-03T10:21:41.849Z,33.20
2022-09-03T10:24:49.374Z,33.23
2022-09-03T10:27:19.800Z,33.28
2022-09-03T10:29:46.840Z,33.28
2022-09-03T10:32:39.904Z,33.22
2022-09-03T10:35:29.154Z,33.14
2022-09-03T10:38:18.930Z,33.13
2022-09-03T10:41:33.222Z,33.21
2022-09-03T10:44:35.777Z,33.24
2022-09-03T10:47:49.964Z,33.22
2022-09-03T10:50:31.308Z,33.33
2022-09-03T10:53:27.081Z,33.56
2022-09-03T10:56:13.567Z,33.98
2022-09-03T10:58:59.898Z,34.63
2022-09-03T11:02:11.692Z,35.23
2022-09-03T11:05:25.040Z,35.67
2022-09-03T11:08:01.417Z,35.95
2022-09-03T11:10:32.379Z,36.01
2022-09-03T11:13:20.471Z,35.85
2022-09-03T11:16:02.090Z,35.50
2022-09-03T11:18:49.133Z,35.20
2022-09-03T11:21:24.253Z,35.11
2022-09-03T11:24:24.273Z,35.24
2022-09-03T11:27:16.209Z,35.49
2022-09-03T11:30:07.564Z,35.74
2022-09-03T11:32:43.303Z,35.95
2022-09-03T11:35:28.843Z,36.02
2022-09-03T11:38:05.516Z,35.92
2022-09-03T11:40:40.174Z,35.85
2022-09-03T11:43:29.128Z,35.79
2022-09-03T11:46:23.725Z,35.62
2022-09-03T11:48:56.389Z,35.35
2022-09-03T11:51:42.782Z,35.06
2022-09-03T11:54:12.942Z,34.83
2022-09-03T11:56:42.056Z,34.72
2022-09-03T11:59:24.381Z,34.55
2022-09-03T12:02:36.099Z,34.20
2022-09-03T12:05:35.228Z,33.97
2022-09-03T12:08:50.924Z,33.69
2022-09-03T12:11:47.647Z,33.48
2022-09-03T12:14:32.916Z,33.30
2022-09-03T12:17:18.980Z,33.19
2022-09-03T12:19:56.181Z,33.13
2022-09-03T12:22:28.837Z,33.02
2022-09-03T12:25:07.307Z,32.91
2022-09-03T12:27:40.391Z,32.81
2022-09-03T12:30:26.394Z,32.64
2022-09-03T12:33:08.017Z,32.45
2022-09-03T12:38:40.633Z,32.20
2022-09-03T12:41:28.517Z,32.08
2022-09-03T12:44:01.110Z,32.03
2022-09-03T12:46:33.665Z,32.05
2022-09-03T12:52:18.557Z,32.16
2022-09-03T12:55:08.418Z,32.20
2022-09-03T12:57:43.330Z,32.23
2022-09-03T13:00:16.977Z,32.23
2022-09-03T13:03:02.314Z,32.19
2022-09-03T13:05:42.972Z,32.20
2022-09-03T13:08:18.517Z,32.28
2022-09-03T13:10:46.008Z,32.39
2022-09-03T13:13:26.559Z,32.54
2022-09-03T13:16:43.177Z,32.66
2022-09-03T13:19:51.507Z,32.79
2022-09-03T13:23:08.314Z,32.82
2022-09-03T13:26:16.356Z,32.72
2022-09-03T13:29:16.563Z,32.61
2022-09-03T13:31:55.738Z,32.59
2022-09-03T13:34:36.910Z,32.57
2022-09-03T13:37:23.012Z,32.58
2022-09-03T13:40:07.095Z,32.56
2022-09-03T13:42:41.291Z,32.58
2022-09-03T13:45:37.560Z,32.65
2022-09-03T13:49:13.175Z,32.72
2022-09-03T13:51:49.368Z,32.82
2022-09-03T13:54:49.931Z,32.96
2022-09-03T13:57:45.554Z,33.21
2022-09-03T14:00:25.034Z,33.45
2022-09-03T14:03:25.642Z,33.58
2022-09-03T14:06:11.529Z,33.71
2022-09-03T14:09:02.261Z,33.62
2022-09-03T14:11:46.935Z,33.46
2022-09-03T14:15:06.536Z,33.19
2022-09-03T14:18:13.174Z,32.94
2022-09-03T14:21:31.109Z,32.76
2022-09-03T14:24:24.759Z,32.74
2022-09-03T14:27:00.302Z,32.74
2022-09-03T14:29:33.417Z,32.63
2022-09-03T14:32:27.971Z,32.36
2022-09-03T14:35:47.197Z,32.10
2022-09-03T14:38:38.368Z,31.79
2022-09-03T14:41:35.864Z,31.58
2022-09-03T14:44:55.609Z,31.56
2022-09-03T14:48:01.009Z,31.24
2022-09-03T14:51:00.922Z,31.02
2022-09-03T14:54:01.194Z,30.85
2022-09-03T14:57:09.562Z,30.70
2022-09-03T15:00:06.286Z,30.58
2022-09-03T15:03:15.414Z,30.44
2022-09-03T15:06:03.585Z,30.34
2022-09-03T15:08:48.346Z,30.22
2022-09-03T15:11:24.193Z,30.13
2022-09-03T15:14:19.980Z,29.99
2022-09-03T15:16:56.062Z,29.90
2022-09-03T15:19:44.678Z,29.78
2022-09-03T15:23:12.287Z,29.63
2022-09-03T15:26:17.855Z,29.51
2022-09-03T15:29:15.731Z,29.44
2022-09-03T15:32:20.770Z,29.39
2022-09-03T15:35:23.001Z,29.44
2022-09-03T15:38:02.240Z,29.47
2022-09-03T15:40:42.803Z,29.53
2022-09-03T15:43:23.762Z,29.59
2022-09-03T15:46:13.853Z,29.62
2022-09-03T15:48:52.519Z,29.68
2022-09-03T15:51:32.896Z,29.73
2022-09-03T15:54:18.260Z,29.78
2022-09-03T15:57:10.114Z,29.84
2022-09-03T16:00:01.729Z,29.85
2022-09-03T16:02:50.544Z,29.86
2022-09-03T16:05:35.313Z,29.84
2022-09-03T16:08:19.896Z,29.76
2022-09-03T16:11:09.141Z,29.70
2022-09-03T16:13:49.594Z,29.58
2022-09-03T16:16:42.679Z,29.70
2022-09-03T16:19:38.448Z,29.58
2022-09-03T16:22:28.316Z,29.45
2022-09-03T16:25:08.793Z,29.41
2022-09-03T16:28:08.998Z,29.35
2022-09-03T16:30:40.011Z,29.36
2022-09-03T16:33:41.329Z,29.35
2022-09-03T16:36:14.029Z,29.38
2022-09-03T16:39:11.647Z,29.42
2022-09-03T16:41:49.237Z,29.39
2022-09-03T16:44:41.199Z,29.37
2022-09-03T16:47:32.274Z,29.30
2022-09-03T16:50:39.192Z,29.26
2022-09-03T16:53:41.166Z,29.30
2022-09-03T16:56:38.734Z,29.29
2022-09-03T16:59:52.796Z,29.21
2022-09-03T17:02:41.621Z,29.19
2022-09-03T17:05:34.929Z,29.14
2022-09-03T17:09:02.135Z,29.05
2022-09-03T17:12:09.495Z,28.97
2022-09-03T17:15:17.278Z,28.94
2022-09-03T17:17:50.080Z,28.91
2022-09-03T17:23:50.956Z,28.86
2022-09-03T17:26:54.122Z,28.82
2022-09-03T17:29:54.439Z,28.76
2022-09-03T17:33:04.133Z,28.70
2022-09-03T17:36:07.580Z,28.65
2022-09-03T17:39:06.875Z,28.56
2022-09-03T17:41:56.328Z,28.49
2022-09-03T17:44:34.638Z,28.50
2022-09-03T17:47:32.003Z,28.47
2022-09-03T17:50:33.176Z,28.42
2022-09-03T17:53:26.911Z,28.37
2022-09-03T17:55:59.075Z,28.32
2022-09-03T17:58:32.870Z,28.28
2022-09-03T18:01:10.283Z,28.22
2022-09-03T18:03:52.018Z,28.16
2022-09-03T18:06:45.060Z,28.08
2022-09-03T18:09:17.686Z,28.02
2022-09-03T18:12:04.618Z,27.98
2022-09-03T18:14:47.897Z,27.84
2022-09-03T18:18:22.033Z,27.73
2022-09-03T18:21:24.310Z,27.64
2022-09-03T18:24:42.863Z,27.50
2022-09-03T18:27:46.183Z,27.40
2022-09-03T18:30:34.867Z,27.32
2022-09-03T18:33:20.847Z,27.21
2022-09-03T18:36:06.755Z,27.14
2022-09-03T18:38:57.389Z,27.06
2022-09-03T18:42:12.603Z,26.92
2022-09-03T18:45:49.061Z,26.77
2022-09-03T18:48:59.178Z,26.60
2022-09-03T18:52:22.094Z,26.49
2022-09-03T18:55:28.808Z,26.37
2022-09-03T18:58:43.674Z,26.23
2022-09-03T19:01:49.917Z,26.17
2022-09-03T19:04:49.699Z,26.05
2022-09-03T19:08:14.416Z,25.92
2022-09-03T19:11:15.651Z,25.79
2022-09-03T19:14:01.746Z,25.68
2022-09-03T19:17:20.556Z,25.54
2022-09-03T19:20:23.095Z,25.43
2022-09-03T19:23:18.463Z,25.34
2022-09-03T19:26:04.804Z,25.23
2022-09-03T19:28:59.405Z,25.17
2022-09-03T19:31:57.415Z,25.01
2022-09-03T19:35:29.391Z,24.91
2022-09-03T19:38:38.752Z,24.84
2022-09-03T19:41:46.446Z,24.74
2022-09-03T19:45:01.269Z,24.69
2022-09-03T19:48:51.869Z,24.59
2022-09-03T19:51:54.971Z,24.53
2022-09-03T19:54:45.727Z,24.49
2022-09-03T19:57:36.352Z,24.47
2022-09-03T20:00:32.542Z,24.44
2022-09-03T20:03:21.433Z,24.37
2022-09-03T20:06:10.988Z,24.32
2022-09-03T20:08:57.804Z,24.27
2022-09-03T20:11:29.031Z,24.23
2022-09-03T20:14:17.462Z,24.16
2022-09-03T20:17:24.901Z,24.11
2022-09-03T20:20:15.486Z,24.04
2022-09-03T20:23:03.079Z,24.01
2022-09-03T20:26:13.513Z,23.95
2022-09-03T20:29:14.042Z,23.90
2022-09-03T20:31:54.214Z,23.86
2022-09-03T20:34:56.485Z,23.83
2022-09-03T20:37:55.992Z,23.75
2022-09-03T20:40:48.955Z,23.70
2022-09-03T20:43:56.813Z,23.64
2022-09-03T20:46:56.765Z,23.59
2022-09-03T20:49:40.617Z,23.57
2022-09-03T20:52:46.122Z,23.51
2022-09-03T20:56:03.914Z,23.46
2022-09-03T20:59:12.080Z,23.40
2022-09-03T21:02:11.648Z,23.38
2022-09-03T21:05:01.187Z,23.37
2022-09-03T21:08:07.751Z,23.35
2022-09-03T21:10:57.541Z,23.35
2022-09-03T21:14:11.938Z,23.33
2022-09-03T21:20:34.629Z,23.29
2022-09-03T21:23:19.864Z,23.27
2022-09-03T21:26:20.247Z,23.28
2022-09-03T21:29:03.641Z,23.29
2022-09-03T21:31:54.049Z,23.29
2022-09-03T21:34:55.096Z,23.27
2022-09-03T21:37:24.487Z,23.29
2022-09-03T21:40:04.738Z,23.30
2022-09-03T21:43:00.703Z,23.28
2022-09-03T21:45:47.182Z,23.28
2022-09-03T21:48:28.850Z,23.28
2022-09-03T21:51:14.655Z,23.26
2022-09-03T21:54:33.854Z,23.23
2022-09-03T21:57:22.076Z,23.23
2022-09-03T22:00:04.883Z,23.22
2022-09-03T22:02:33.870Z,23.21
2022-09-03T22:05:06.618Z,23.22
2022-09-03T22:07:57.345Z,23.18
2022-09-03T22:11:14.354Z,23.12
2022-09-03T22:13:55.180Z,23.09
2022-09-03T22:16:35.432Z,23.05
2022-09-03T22:19:02.322Z,23.02
2022-09-03T22:21:58.361Z,22.98
2022-09-03T22:24:39.645Z,22.91
2022-09-03T22:27:39.760Z,22.83
2022-09-03T22:30:11.252Z,22.79
2022-09-03T22:33:05.179Z,22.72
2022-09-03T22:36:10.273Z,22.63
2022-09-03T22:39:00.001Z,22.57
2022-09-03T22:41:48.507Z,22.51
2022-09-03T22:44:59.711Z,22.42
2022-09-03T22:48:03.088Z,22.36
2022-09-03T22:51:09.384Z,22.29
2022-09-03T22:54:10.643Z,22.24
2022-09-03T22:56:42.219Z,22.19
2022-09-03T22:59:51.355Z,22.17
2022-09-03T23:02:27.009Z,22.10
2022-09-03T23:05:44.314Z,22.01
2022-09-03T23:08:25.394Z,21.92
2022-09-03T23:11:23.071Z,21.83
2022-09-03T23:14:01.080Z,21.77
2022-09-03T23:16:37.403Z,21.74
2022-09-03T23:22:01.694Z,21.65
2022-09-03T23:24:43.266Z,21.61
2022-09-03T23:27:20.498Z,21.55
2022-09-03T23:30:00.697Z,21.48
2022-09-03T23:32:33.326Z,21.43
2022-09-03T23:35:03.305Z,21.40
2022-09-03T23:37:42.179Z,21.32
2022-09-03T23:40:45.867Z,21.23
2022-09-03T23:43:49.134Z,21.14
2022-09-03T23:46:57.000Z,21.08
2022-09-03T23:50:25.438Z,21.02
2022-09-03T23:53:13.541Z,20.97
2022-09-03T23:56:08.480Z,20.93
2022-09-03T23:59:28.387Z,20.90
